Time,TemperatureF,DewpointF,PressureIn,WindDirection,WindDirectionDegrees,WindSpeedMPH,WindSpeedGustMPH,Humidity,HourlyPrecipIn,Conditions,Clouds,dailyrainin,SolarRadiationWatts/m^2,SoftwareType,DateUTC
2013-03-29 00:12:00,34.0,32.0,-100.00,NNE,25,0.0,3.0,93,0.00,,,-99.99,0.000000,,2013-03-29 07:12:00,
2013-03-29 00:22:00,34.0,32.0,-100.00,NNE,25,0.0,3.0,93,0.00,,,-99.99,0.000000,,2013-03-29 07:22:00,
2013-03-29 00:32:00,34.0,32.0,-100.00,NNE,25,0.0,3.0,93,0.00,,,-99.99,0.000000,,2013-03-29 07:32:00,
2013-03-29 00:42:00,34.0,32.0,-100.00,NNE,25,0.0,3.0,93,0.00,,,-99.99,0.000000,,2013-03-29 07:42:00,
2013-03-29 01:12:00,34.0,32.0,-100.00,North,3,0.0,2.0,94,0.00,,,-99.99,0.000000,,2013-03-29 08:12:00,
2013-03-29 01:22:00,34.0,32.0,-100.00,North,3,0.0,2.0,94,0.00,,,-99.99,0.000000,,2013-03-29 08:22:00,
2013-03-29 01:32:00,34.0,32.0,-100.00,North,3,0.0,2.0,94,0.00,,,-99.99,0.000000,,2013-03-29 08:32:00,
2013-03-29 01:42:00,34.0,32.0,-100.00,North,3,0.0,2.0,94,0.00,,,-99.99,0.000000,,2013-03-29 08:42:00,
2013-03-29 01:51:00,34.0,32.0,-100.00,North,3,0.0,2.0,94,0.00,,,-99.99,0.000000,,2013-03-29 08:51:00,
2013-03-29 01:52:00,34.0,32.0,-100.00,NNE,23,0.0,2.0,94,0.00,,,-99.99,0.000000,,2013-03-29 08:52:00,
2013-03-29 02:12:00,34.0,32.0,-100.00,NNE,23,0.0,2.0,94,0.00,,,-99.99,0.000000,,2013-03-29 09:12:00,
2013-03-29 02:22:00,34.0,32.0,-100.00,NNE,23,0.0,2.0,94,0.00,,,-99.99,0.000000,,2013-03-29 09:22:00,
2013-03-29 02:32:00,34.0,32.0,-100.00,NNE,23,0.0,2.0,94,0.00,,,-99.99,0.000000,,2013-03-29 09:32:00,
2013-03-29 02:42:00,34.0,32.0,-100.00,NNE,23,0.0,2.0,94,0.00,,,-99.99,0.000000,,2013-03-29 09:42:00,
2013-03-29 02:52:00,34.0,33.0,-100.00,WSW,257,0.0,3.0,96,0.00,,,-99.99,0.000000,,2013-03-29 09:52:00,
2013-03-29 03:22:00,34.0,33.0,-100.00,WSW,257,0.0,3.0,96,0.00,,,-99.99,0.000000,,2013-03-29 10:22:00,
2013-03-29 03:33:00,34.0,33.0,-100.00,WSW,257,0.0,3.0,96,0.00,,,-99.99,0.000000,,2013-03-29 10:33:00,
2013-03-29 03:42:00,34.0,33.0,-100.00,WSW,257,0.0,3.0,96,0.00,,,-99.99,0.000000,,2013-03-29 10:42:00,
2013-03-29 03:52:00,34.0,33.0,-100.00,NNW,338,0.0,2.0,95,0.00,,,-99.99,0.000000,,2013-03-29 10:52:00,
2013-03-29 04:12:00,34.0,33.0,-100.00,NNW,338,0.0,2.0,95,0.00,,,-99.99,0.000000,,2013-03-29 11:12:00,
2013-03-29 04:23:00,34.0,33.0,-100.00,NNW,338,0.0,2.0,95,0.00,,,-99.99,0.000000,,2013-03-29 11:23:00,
2013-03-29 04:32:00,34.0,33.0,-100.00,NNW,338,0.0,2.0,95,0.00,,,-99.99,0.000000,,2013-03-29 11:32:00,
2013-03-29 04:42:00,34.0,33.0,-100.00,NNW,338,0.0,2.0,95,0.00,,,-99.99,0.000000,,2013-03-29 11:42:00,
2013-03-29 05:22:00,34.0,33.0,-100.00,NNE,22,0.0,2.0,96,0.00,,,-99.99,0.000000,,2013-03-29 12:22:00,
2013-03-29 05:32:00,34.0,33.0,-100.00,NNE,22,0.0,2.0,96,0.00,,,-99.99,0.000000,,2013-03-29 12:32:00,
2013-03-29 05:42:00,34.0,33.0,-100.00,NNE,22,0.0,2.0,96,0.00,,,-99.99,0.000000,,2013-03-29 12:42:00,
2013-03-29 05:51:00,34.0,33.0,-100.00,NNE,22,0.0,2.0,96,0.00,,,-99.99,0.000000,,2013-03-29 12:51:00,
2013-03-29 05:52:00,34.0,33.0,-100.00,NNE,22,0.0,2.0,96,0.00,,,-99.99,0.000000,,2013-03-29 12:52:00,
2013-03-29 06:22:00,34.0,33.0,-100.00,NNE,22,0.0,2.0,96,0.00,,,-99.99,0.000000,,2013-03-29 13:22:00,
2013-03-29 06:32:00,34.0,33.0,-100.00,NNE,22,0.0,2.0,96,0.00,,,-99.99,0.000000,,2013-03-29 13:32:00,
2013-03-29 06:42:00,34.0,33.0,-100.00,NNE,22,0.0,2.0,96,0.00,,,-99.99,0.000000,,2013-03-29 13:42:00,
2013-03-29 06:52:00,35.0,34.0,-100.00,North,358,0.0,1.0,96,0.00,,,-99.99,1.000000,,2013-03-29 13:52:00,
2013-03-29 07:22:00,35.0,34.0,-100.00,North,358,0.0,1.0,96,0.00,,,-99.99,1.000000,,2013-03-29 14:22:00,
2013-03-29 07:32:00,35.0,34.0,-100.00,North,358,0.0,1.0,96,0.00,,,-99.99,1.000000,,2013-03-29 14:32:00,
2013-03-29 07:42:00,35.0,34.0,-100.00,North,358,0.0,1.0,96,0.00,,,-99.99,1.000000,,2013-03-29 14:42:00,
2013-03-29 07:52:00,35.0,33.0,-100.00,North,8,0.0,2.0,94,0.00,,,-99.99,15.000000,,2013-03-29 14:52:00,
2013-03-29 08:22:00,35.0,33.0,-100.00,North,8,0.0,2.0,94,0.00,,,-99.99,15.000000,,2013-03-29 15:22:00,
2013-03-29 08:33:00,35.0,33.0,-100.00,North,8,0.0,2.0,94,0.00,,,-99.99,15.000000,,2013-03-29 15:33:00,
2013-03-29 08:42:00,35.0,33.0,-100.00,North,8,0.0,2.0,94,0.00,,,-99.99,15.000000,,2013-03-29 15:42:00,
2013-03-29 08:52:00,37.0,35.0,-100.00,NNW,337,0.0,0.0,93,0.00,,,-99.99,36.000000,,2013-03-29 15:52:00,
2013-03-29 09:12:00,37.0,35.0,-100.00,NNW,337,0.0,0.0,93,0.00,,,-99.99,36.000000,,2013-03-29 16:12:00,
2013-03-29 09:23:00,37.0,35.0,-100.00,NNW,337,0.0,0.0,93,0.00,,,-99.99,36.000000,,2013-03-29 16:23:00,
2013-03-29 09:32:00,37.0,35.0,-100.00,NNW,337,0.0,0.0,93,0.00,,,-99.99,36.000000,,2013-03-29 16:32:00,
2013-03-29 09:42:00,37.0,35.0,-100.00,NNW,337,0.0,0.0,93,0.00,,,-99.99,36.000000,,2013-03-29 16:42:00,
2013-03-29 09:52:00,41.0,38.0,-100.00,SSW,205,0.0,2.0,89,0.00,,,-99.99,104.000000,,2013-03-29 16:52:00,
2013-03-29 10:22:00,41.0,38.0,-100.00,SSW,205,0.0,2.0,89,0.00,,,-99.99,104.000000,,2013-03-29 17:22:00,
2013-03-29 10:33:00,41.0,38.0,-100.00,SSW,205,0.0,2.0,89,0.00,,,-99.99,104.000000,,2013-03-29 17:33:00,
2013-03-29 10:42:00,41.0,38.0,-100.00,SSW,205,0.0,2.0,89,0.00,,,-99.99,104.000000,,2013-03-29 17:42:00,
2013-03-29 10:52:00,45.0,40.0,-100.00,North,349,0.0,2.0,84,0.00,,,0.00,179.000000,,2013-03-29 17:52:00,
2013-03-29 11:12:00,45.0,40.0,-100.00,North,349,0.0,2.0,84,0.00,,,0.00,179.000000,,2013-03-29 18:12:00,
2013-03-29 11:22:00,45.0,40.0,-100.00,North,349,0.0,2.0,84,0.00,,,0.00,179.000000,,2013-03-29 18:22:00,
2013-03-29 11:32:00,45.0,40.0,-100.00,North,349,0.0,2.0,84,0.00,,,0.00,179.000000,,2013-03-29 18:32:00,
2013-03-29 11:42:00,45.0,40.0,-100.00,North,349,0.0,2.0,84,0.00,,,0.00,179.000000,,2013-03-29 18:42:00,
2013-03-29 11:52:00,51.0,42.0,-100.00,South,190,4.0,7.0,72,0.00,,,0.00,355.000000,,2013-03-29 18:52:00,
2013-03-29 12:12:00,51.0,42.0,-100.00,South,190,4.0,7.0,72,0.00,,,0.00,355.000000,,2013-03-29 19:12:00,
2013-03-29 12:22:00,51.0,42.0,-100.00,South,190,4.0,7.0,72,0.00,,,0.00,355.000000,,2013-03-29 19:22:00,
2013-03-29 12:32:00,51.0,42.0,-100.00,South,190,4.0,7.0,72,0.00,,,0.00,355.000000,,2013-03-29 19:32:00,
2013-03-29 12:42:00,51.0,42.0,-100.00,South,190,4.0,7.0,72,0.00,,,0.00,355.000000,,2013-03-29 19:42:00,
2013-03-29 13:12:00,49.0,43.0,-100.00,South,188,1.0,7.0,80,0.00,,,0.00,301.000000,,2013-03-29 20:12:00,
2013-03-29 13:22:00,49.0,43.0,-100.00,South,188,1.0,7.0,80,0.00,,,0.00,301.000000,,2013-03-29 20:22:00,
2013-03-29 13:32:00,49.0,43.0,-100.00,South,188,1.0,7.0,80,0.00,,,0.00,301.000000,,2013-03-29 20:32:00,
2013-03-29 13:42:00,49.0,43.0,-100.00,South,188,1.0,7.0,80,0.00,,,0.00,301.000000,,2013-03-29 20:42:00,
2013-03-29 13:51:00,49.0,43.0,-100.00,South,188,1.0,7.0,80,0.00,,,0.00,301.000000,,2013-03-29 20:51:00,
2013-03-29 14:22:00,43.0,39.0,-100.00,North,355,0.0,6.0,87,0.02,,,0.02,157.000000,,2013-03-29 21:22:00,
2013-03-29 14:32:00,43.0,39.0,-100.00,North,355,0.0,6.0,87,0.02,,,0.02,157.000000,,2013-03-29 21:32:00,
2013-03-29 14:52:00,44.0,43.0,-100.00,WSW,239,1.0,5.0,95,-99.99,,,0.06,111.000000,,2013-03-29 21:52:00,
2013-03-29 15:12:00,44.0,43.0,-100.00,WSW,239,1.0,5.0,95,-99.99,,,0.06,111.000000,,2013-03-29 22:12:00,
2013-03-29 15:22:00,44.0,43.0,-100.00,WSW,239,1.0,5.0,95,-99.99,,,0.06,111.000000,,2013-03-29 22:22:00,
2013-03-29 15:33:00,44.0,43.0,-100.00,WSW,239,1.0,5.0,95,-99.99,,,0.06,111.000000,,2013-03-29 22:33:00,
2013-03-29 15:42:00,44.0,43.0,-100.00,WSW,239,1.0,5.0,95,-99.99,,,0.06,111.000000,,2013-03-29 22:42:00,
2013-03-29 15:52:00,50.0,45.0,-100.00,SW,236,0.0,6.0,84,0.00,,,0.06,310.000000,,2013-03-29 22:52:00,
2013-03-29 16:22:00,50.0,45.0,-100.00,SW,236,0.0,6.0,84,0.00,,,0.06,310.000000,,2013-03-29 23:22:00,
2013-03-29 16:32:00,50.0,45.0,-100.00,SW,236,0.0,6.0,84,0.00,,,0.06,310.000000,,2013-03-29 23:32:00,
2013-03-29 16:42:00,50.0,45.0,-100.00,SW,236,0.0,6.0,84,0.00,,,0.06,310.000000,,2013-03-29 23:42:00,
2013-03-29 16:52:00,47.0,42.0,-100.00,SW,216,1.0,7.0,84,0.00,,,0.06,255.000000,,2013-03-29 23:52:00,
2013-03-29 17:12:00,47.0,42.0,-100.00,SW,216,1.0,7.0,84,0.00,,,0.06,255.000000,,2013-03-30 00:12:00,
2013-03-29 17:22:00,47.0,42.0,-100.00,SW,216,1.0,7.0,84,0.00,,,0.06,255.000000,,2013-03-30 00:22:00,
2013-03-29 17:32:00,47.0,42.0,-100.00,SW,216,1.0,7.0,84,0.00,,,0.06,255.000000,,2013-03-30 00:32:00,
2013-03-29 17:42:00,47.0,42.0,-100.00,SW,216,1.0,7.0,84,0.00,,,0.06,255.000000,,2013-03-30 00:42:00,
2013-03-29 17:52:00,41.0,39.0,-100.00,NNW,345,0.0,2.0,92,0.00,,,0.06,79.000000,,2013-03-30 00:52:00,
2013-03-29 18:12:00,41.0,39.0,-100.00,NNW,345,0.0,2.0,92,0.00,,,0.06,79.000000,,2013-03-30 01:12:00,
2013-03-29 18:22:00,41.0,39.0,-100.00,NNW,345,0.0,2.0,92,0.00,,,0.06,79.000000,,2013-03-30 01:22:00,
2013-03-29 18:32:00,41.0,39.0,-100.00,NNW,345,0.0,2.0,92,0.00,,,0.06,79.000000,,2013-03-30 01:32:00,
2013-03-29 18:42:00,41.0,39.0,-100.00,NNW,345,0.0,2.0,92,0.00,,,0.06,79.000000,,2013-03-30 01:42:00,
2013-03-29 18:52:00,39.0,37.0,-100.00,North,8,2.0,3.0,94,0.00,,,0.06,40.000000,,2013-03-30 01:52:00,
2013-03-29 19:22:00,39.0,37.0,-100.00,North,8,2.0,3.0,94,0.00,,,0.06,40.000000,,2013-03-30 02:22:00,
2013-03-29 19:32:00,39.0,37.0,-100.00,North,8,2.0,3.0,94,0.00,,,0.06,40.000000,,2013-03-30 02:32:00,
2013-03-29 19:42:00,39.0,37.0,-100.00,North,8,2.0,3.0,94,0.00,,,0.06,40.000000,,2013-03-30 02:42:00,
2013-03-29 19:52:00,36.0,35.0,-100.00,NNE,16,1.0,3.0,95,0.00,,,0.06,2.000000,,2013-03-30 02:52:00,
2013-03-29 20:12:00,36.0,35.0,-100.00,NNE,16,1.0,3.0,95,0.00,,,0.06,2.000000,,2013-03-30 03:12:00,
2013-03-29 20:22:00,36.0,35.0,-100.00,NNE,16,1.0,3.0,95,0.00,,,0.06,2.000000,,2013-03-30 03:22:00,
2013-03-29 20:33:00,36.0,35.0,-100.00,NNE,16,1.0,3.0,95,0.00,,,0.06,2.000000,,2013-03-30 03:33:00,
2013-03-29 20:43:00,36.0,35.0,-100.00,NNE,16,1.0,3.0,95,0.00,,,0.06,2.000000,,2013-03-30 03:43:00,
2013-03-29 20:52:00,35.0,34.0,-100.00,NE,36,0.0,3.0,96,0.00,,,0.06,0.000000,,2013-03-30 03:52:00,
2013-03-29 21:12:00,35.0,34.0,-100.00,NE,36,0.0,3.0,96,0.00,,,0.06,0.000000,,2013-03-30 04:12:00,
2013-03-29 21:23:00,35.0,34.0,-100.00,NE,36,0.0,3.0,96,0.00,,,0.06,0.000000,,2013-03-30 04:23:00,
2013-03-29 21:32:00,35.0,34.0,-100.00,NE,36,0.0,3.0,96,0.00,,,0.06,0.000000,,2013-03-30 04:32:00,
2013-03-29 21:42:00,35.0,34.0,-100.00,NE,36,0.0,3.0,96,0.00,,,0.06,0.000000,,2013-03-30 04:42:00,
2013-03-29 22:12:00,35.0,34.0,-100.00,NNE,25,0.0,2.0,96,0.00,,,0.06,0.000000,,2013-03-30 05:12:00,
2013-03-29 22:22:00,35.0,34.0,-100.00,NNE,25,0.0,2.0,96,0.00,,,0.06,0.000000,,2013-03-30 05:22:00,
2013-03-29 22:32:00,35.0,34.0,-100.00,NNE,25,0.0,2.0,96,0.00,,,0.06,0.000000,,2013-03-30 05:32:00,
2013-03-29 22:42:00,35.0,34.0,-100.00,NNE,25,0.0,2.0,96,0.00,,,0.06,0.000000,,2013-03-30 05:42:00,
2013-03-29 22:51:00,35.0,34.0,-100.00,NNE,25,0.0,2.0,96,0.00,,,0.06,0.000000,,2013-03-30 05:51:00,
2013-03-29 22:52:00,35.0,34.0,-100.00,NNE,20,0.0,3.0,96,0.00,,,0.06,0.000000,,2013-03-30 05:52:00,
2013-03-29 23:11:00,35.0,34.0,-100.00,NNE,20,0.0,3.0,96,0.00,,,0.06,0.000000,,2013-03-30 06:11:00,
2013-03-29 23:22:00,35.0,34.0,-100.00,NNE,20,0.0,3.0,96,0.00,,,0.06,0.000000,,2013-03-30 06:22:00,
2013-03-29 23:32:00,35.0,34.0,-100.00,NNE,20,0.0,3.0,96,0.00,,,0.06,0.000000,,2013-03-30 06:32:00,
2013-03-29 23:42:00,35.0,34.0,-100.00,NNE,20,0.0,3.0,96,0.00,,,0.06,0.000000,,2013-03-30 06:42:00,
2013-03-29 23:52:00,34.0,33.0,-100.00,North,5,1.0,2.0,96,0.00,,,0.06,0.000000,,2013-03-30 06:52:00,